Time;durP1;ratioP1;P1;durP2;ratioP2;P2;SDS_P1;SDS_P2;PMS_P1;PMS_P2;Temp;Humidity;BMP_temperature;BMP_pressure;BME280_temperature;BME280_humidity;BME280_pressure;Samples;Min_cycle;Max_cycle;Signal;HPM_P1;HPM_P2
2023/04/06 00:01:01;;;;;;;14.93;9.05;;;8.70;78.30;;;;;;6244408;23;20004;-74
2023/04/06 00:03:27;;;;;;;10.82;9.05;;;8.70;78.50;;;;;;6245048;23;20066;-74
2023/04/06 00:05:53;;;;;;;13.55;9.63;;;8.70;78.50;;;;;;6246297;23;20422;-72
2023/04/06 00:08:21;;;;;;;12.82;9.52;;;8.70;78.70;;;;;;6246370;23;20374;-73
2023/04/06 00:10:47;;;;;;;16.20;10.23;;;8.70;78.80;;;;;;6246176;23;20006;-73
2023/04/06 00:13:12;;;;;;;13.82;9.05;;;8.60;79.40;;;;;;6219469;23;20087;-73
2023/04/06 00:15:38;;;;;;;13.40;8.68;;;8.60;79.90;;;;;;6219354;23;20026;-74
2023/04/06 00:18:04;;;;;;;12.43;8.20;;;8.50;79.40;;;;;;6246038;23;20066;-73
2023/04/06 00:20:30;;;;;;;12.95;7.75;;;8.30;78.80;;;;;;6244022;23;20084;-73
2023/04/06 00:22:55;;;;;;;13.45;7.18;;;8.30;78.60;;;;;;6246259;23;20004;-73
2023/04/06 00:25:22;;;;;;;11.48;7.35;;;8.20;77.90;;;;;;6246302;23;20007;-73
2023/04/06 00:27:48;;;;;;;13.98;7.00;;;8.20;77.80;;;;;;6246348;23;20007;-73
2023/04/06 00:30:14;;;;;;;12.20;7.70;;;8.10;77.20;;;;;;6246387;23;20334;-74
2023/04/06 00:32:40;;;;;;;10.80;6.70;;;8.10;77.80;;;;;;6246150;23;20004;-74
2023/04/06 00:35:06;;;;;;;10.73;7.18;;;8.10;77.00;;;;;;6246051;23;20046;-74
2023/04/06 00:37:32;;;;;;;11.20;6.82;;;8.20;77.10;;;;;;6246253;23;20367;-74
2023/04/06 00:39:58;;;;;;;10.68;7.13;;;8.10;77.10;;;;;;6245885;23;20004;-73
2023/04/06 00:42:27;;;;;;;10.70;7.72;;;8.10;76.50;;;;;;6219072;23;20440;-75
2023/04/06 00:44:55;;;;;;;12.27;7.20;;;8.10;76.60;;;;;;6246036;23;20000;-73
2023/04/06 00:47:21;;;;;;;10.30;6.50;;;8.00;75.70;;;;;;6246257;23;20031;-74
2023/04/06 00:49:47;;;;;;;13.32;7.38;;;8.00;76.10;;;;;;6246027;23;20000;-74
2023/04/06 00:52:13;;;;;;;10.57;6.60;;;8.00;75.90;;;;;;6246058;23;20434;-74
2023/04/06 00:54:39;;;;;;;11.40;7.05;;;8.00;75.70;;;;;;6246018;23;20016;-74
2023/04/06 00:57:05;;;;;;;11.60;6.95;;;8.00;76.40;;;;;;6246236;23;20067;-73
2023/04/06 00:59:31;;;;;;;11.95;6.85;;;8.00;76.10;;;;;;6245973;23;20004;-74
2023/04/06 01:01:57;;;;;;;11.43;6.47;;;8.10;75.80;;;;;;6245898;23;19996;-73
2023/04/06 01:04:23;;;;;;;12.63;7.10;;;8.10;75.90;;;;;;6246006;23;20648;-74
2023/04/06 01:06:50;;;;;;;10.68;7.13;;;8.10;76.00;;;;;;6245931;23;20079;-73
2023/04/06 01:09:17;;;;;;;10.27;6.65;;;8.00;75.50;;;;;;6245777;23;20005;-73
2023/04/06 01:11:42;;;;;;;11.38;6.22;;;7.90;75.50;;;;;;6246032;23;20012;-73
2023/04/06 01:14:08;;;;;;;10.93;6.78;;;8.00;75.40;;;;;;6219060;23;20016;-74
2023/04/06 01:16:35;;;;;;;10.73;6.80;;;8.00;75.40;;;;;;6245155;23;20020;-76
2023/04/06 01:19:01;;;;;;;11.90;6.50;;;7.90;75.30;;;;;;6244501;23;20333;-74
2023/04/06 01:21:27;;;;;;;10.50;6.75;;;7.90;75.00;;;;;;6192332;23;20012;-75
2023/04/06 01:23:53;;;;;;;13.10;6.65;;;7.90;74.50;;;;;;6217377;23;20050;-74
2023/04/06 01:26:18;;;;;;;9.80;6.63;;;7.80;74.00;;;;;;6244485;23;20050;-73
2023/04/06 01:28:44;;;;;;;10.50;6.10;;;7.80;74.10;;;;;;6244306;23;20005;-73
2023/04/06 01:31:10;;;;;;;9.95;6.47;;;7.80;73.40;;;;;;6244612;23;20376;-74
2023/04/06 01:33:36;;;;;;;14.30;6.22;;;7.80;73.30;;;;;;6244303;23;20445;-71
2023/04/06 01:36:03;;;;;;;11.57;6.40;;;7.80;73.70;;;;;;6243977;23;20043;-75
2023/04/06 01:38:30;;;;;;;9.60;6.45;;;7.80;73.50;;;;;;6244451;23;20091;-74
2023/04/06 01:40:55;;;;;;;12.90;6.78;;;7.80;73.00;;;;;;6244960;23;20010;-73
2023/04/06 01:43:22;;;;;;;13.18;6.50;;;7.80;73.10;;;;;;6244278;23;20028;-75
2023/04/06 01:45:47;;;;;;;9.60;5.75;;;7.70;73.00;;;;;;6244114;23;20438;-73
2023/04/06 01:48:13;;;;;;;11.15;6.38;;;7.70;73.50;;;;;;6244290;23;20030;-72
2023/04/06 01:50:39;;;;;;;13.35;6.55;;;7.60;73.40;;;;;;6217322;23;20469;-75
2023/04/06 01:53:05;;;;;;;11.60;6.50;;;7.60;73.40;;;;;;6244163;23;19997;-74
2023/04/06 01:55:30;;;;;;;9.32;6.40;;;7.60;73.60;;;;;;6244029;23;20020;-74
2023/04/06 01:57:56;;;;;;;11.75;7.10;;;7.60;73.40;;;;;;6244909;23;20000;-74
2023/04/06 02:00:22;;;;;;;11.95;6.13;;;7.60;73.60;;;;;;6244884;23;20004;-74
2023/04/06 02:02:47;;;;;;;14.38;6.63;;;7.60;73.40;;;;;;6244091;23;20023;-74
2023/04/06 02:05:13;;;;;;;9.48;6.35;;;7.60;73.30;;;;;;6243953;23;20456;-73
2023/04/06 02:07:39;;;;;;;9.90;6.20;;;7.50;73.10;;;;;;6244077;23;20426;-73
2023/04/06 02:10:12;;;;;;;11.98;7.18;;;7.50;73.00;;;;;;6244114;23;20004;-74
2023/04/06 02:12:37;;;;;;;11.70;6.40;;;7.50;72.70;;;;;;6244118;23;20000;-73
2023/04/06 02:15:03;;;;;;;11.43;6.68;;;7.40;72.80;;;;;;6244094;23;20019;-74
2023/04/06 02:17:29;;;;;;;11.52;6.45;;;7.40;72.90;;;;;;6194843;23;1162228;-74
2023/04/06 02:19:55;;;;;;;13.13;6.13;;;7.40;73.00;;;;;;6245313;23;20091;-74
2023/04/06 02:22:20;;;;;;;8.02;5.93;;;7.30;72.60;;;;;;6245410;23;20004;-74
2023/04/06 02:24:46;;;;;;;10.35;6.55;;;7.30;73.20;;;;;;6245041;23;20000;-74
2023/04/06 02:27:13;;;;;;;9.68;6.57;;;7.30;73.20;;;;;;6244764;23;20004;-74
2023/04/06 02:29:39;;;;;;;11.38;6.35;;;7.30;72.70;;;;;;6245311;23;19996;-73
2023/04/06 02:32:05;;;;;;;11.55;6.88;;;7.30;72.90;;;;;;6245020;23;20000;-74
2023/04/06 02:34:31;;;;;;;9.85;5.85;;;7.30;72.50;;;;;;6218036;23;20024;-74
2023/04/06 02:36:56;;;;;;;13.18;6.60;;;7.20;72.30;;;;;;6245186;23;20027;-74
2023/04/06 02:39:22;;;;;;;12.50;8.15;;;7.20;72.90;;;;;;6245055;23;20305;-74
2023/04/06 02:41:48;;;;;;;12.95;6.43;;;7.20;72.80;;;;;;6245325;23;20054;-73
2023/04/06 02:44:14;;;;;;;9.73;6.38;;;7.20;72.70;;;;;;6245200;23;20072;-74
2023/04/06 02:46:40;;;;;;;10.38;6.60;;;7.20;72.40;;;;;;6244929;23;20050;-73
2023/04/06 02:49:05;;;;;;;10.07;6.07;;;7.10;72.60;;;;;;6244792;23;20024;-74
2023/04/06 02:51:31;;;;;;;10.05;6.53;;;7.10;72.70;;;;;;6245144;23;20032;-75
2023/04/06 02:53:57;;;;;;;15.38;6.72;;;7.10;72.70;;;;;;6245560;23;20004;-74
2023/04/06 02:56:23;;;;;;;10.05;6.57;;;7.10;73.00;;;;;;6245296;23;20434;-75
2023/04/06 02:58:49;;;;;;;10.60;6.53;;;7.10;72.50;;;;;;6245223;23;19996;-74
2023/04/06 03:01:15;;;;;;;13.60;6.97;;;7.10;72.60;;;;;;6217785;23;20008;-74
2023/04/06 03:03:40;;;;;;;10.73;6.60;;;7.00;72.80;;;;;;6245306;23;19996;-73
2023/04/06 03:06:06;;;;;;;11.02;6.60;;;7.00;72.60;;;;;;6217984;23;20008;-73
2023/04/06 03:08:32;;;;;;;10.02;6.80;;;6.90;72.70;;;;;;6244904;23;20071;-75
2023/04/06 03:10:58;;;;;;;10.25;6.50;;;6.90;73.00;;;;;;6245091;23;20000;-74
2023/04/06 03:13:23;;;;;;;13.20;6.70;;;6.90;72.80;;;;;;6245190;23;20407;-74
2023/04/06 03:15:49;;;;;;;10.00;6.30;;;6.90;72.90;;;;;;6244768;23;20019;-74
2023/04/06 03:18:15;;;;;;;16.77;7.20;;;6.90;73.40;;;;;;6244960;23;19996;-74
2023/04/06 03:20:41;;;;;;;10.30;6.93;;;6.90;73.10;;;;;;6244645;23;20158;-72
2023/04/06 03:23:07;;;;;;;9.70;6.55;;;6.90;72.80;;;;;;6244714;23;20509;-73
2023/04/06 03:25:33;;;;;;;11.15;6.75;;;6.80;73.20;;;;;;6245122;23;20000;-73
2023/04/06 03:27:58;;;;;;;12.10;6.97;;;6.70;73.00;;;;;;6244773;23;20000;-73
2023/04/06 03:30:25;;;;;;;11.77;7.25;;;6.70;73.00;;;;;;6244792;23;20004;-74
2023/04/06 03:32:51;;;;;;;12.55;7.32;;;6.60;73.00;;;;;;6245127;23;20007;-74
2023/04/06 03:35:16;;;;;;;11.60;7.63;;;6.60;73.30;;;;;;6244668;23;20008;-74
2023/04/06 03:37:42;;;;;;;13.07;7.28;;;6.60;73.50;;;;;;6245106;23;20074;-74
2023/04/06 03:40:08;;;;;;;9.82;6.82;;;6.60;73.70;;;;;;6245788;23;20076;-75
2023/04/06 03:42:34;;;;;;;12.38;7.00;;;6.60;73.40;;;;;;6246871;23;20083;-73
2023/04/06 03:45:00;;;;;;;10.75;6.60;;;6.60;73.50;;;;;;6246693;23;20004;-74
2023/04/06 03:47:25;;;;;;;10.13;6.63;;;6.60;73.90;;;;;;6247040;23;19996;-74
2023/04/06 03:49:51;;;;;;;10.57;6.88;;;6.60;73.30;;;;;;6246817;23;20011;-74
2023/04/06 03:52:17;;;;;;;10.57;6.72;;;6.50;73.60;;;;;;6246686;23;20488;-74
2023/04/06 03:54:42;;;;;;;14.63;6.95;;;6.60;73.90;;;;;;6246393;23;20433;-75
2023/04/06 03:57:08;;;;;;;10.70;6.38;;;6.40;73.40;;;;;;6246476;23;20048;-73
2023/04/06 03:59:34;;;;;;;13.68;7.10;;;6.40;74.50;;;;;;6246644;23;20004;-74
2023/04/06 04:02:00;;;;;;;12.10;7.07;;;6.40;73.50;;;;;;6246862;23;20046;-74
2023/04/06 04:04:25;;;;;;;12.52;6.75;;;6.50;74.10;;;;;;6246564;23;20448;-75
2023/04/06 04:06:51;;;;;;;12.93;7.60;;;6.50;73.70;;;;;;6219881;23;20330;-74
2023/04/06 04:09:17;;;;;;;10.25;6.75;;;6.50;73.50;;;;;;6246560;23;20004;-73
2023/04/06 04:11:42;;;;;;;12.23;7.43;;;6.60;73.70;;;;;;6247946;23;20003;-74
2023/04/06 04:14:08;;;;;;;10.57;7.22;;;6.60;73.40;;;;;;6247899;23;20001;-74
2023/04/06 04:16:34;;;;;;;12.25;7.18;;;6.60;73.10;;;;;;6219445;23;20319;-74
2023/04/06 04:19:00;;;;;;;10.95;6.63;;;6.50;73.30;;;;;;6219538;23;20061;-74
2023/04/06 04:21:25;;;;;;;10.35;7.22;;;6.50;74.20;;;;;;6246751;23;20004;-74
2023/04/06 04:23:52;;;;;;;12.32;7.43;;;6.50;73.20;;;;;;6246386;23;20500;-74
2023/04/06 04:26:18;;;;;;;13.18;6.97;;;6.50;73.80;;;;;;6219568;23;20008;-74
2023/04/06 04:28:44;;;;;;;11.48;6.88;;;6.50;73.40;;;;;;6246550;23;20054;-75
2023/04/06 04:31:10;;;;;;;12.95;6.60;;;6.50;73.60;;;;;;6246426;23;20004;-74
2023/04/06 04:33:36;;;;;;;12.18;6.97;;;6.50;73.60;;;;;;6246347;23;19996;-74
2023/04/06 04:36:01;;;;;;;11.30;7.15;;;6.50;73.90;;;;;;6246506;23;20323;-74
2023/04/06 04:38:27;;;;;;;12.63;7.47;;;6.50;73.60;;;;;;6246220;23;20003;-73
2023/04/06 04:40:53;;;;;;;12.27;6.47;;;6.50;73.90;;;;;;6246302;23;20000;-75
2023/04/06 04:43:19;;;;;;;11.60;7.22;;;6.50;74.50;;;;;;6246297;23;20047;-74
2023/04/06 04:45:45;;;;;;;14.20;7.65;;;6.50;74.40;;;;;;6246355;23;20035;-75
2023/04/06 04:48:10;;;;;;;11.43;7.00;;;6.50;74.10;;;;;;6245830;23;20004;-74
2023/04/06 04:50:36;;;;;;;13.05;7.45;;;6.60;74.30;;;;;;6246067;23;20083;-73
2023/04/06 04:53:05;;;;;;;14.20;7.97;;;6.60;73.90;;;;;;6246380;23;19992;-74
2023/04/06 04:55:30;;;;;;;12.70;7.85;;;6.60;73.90;;;;;;6219082;23;20023;-74
2023/04/06 04:57:56;;;;;;;13.18;7.35;;;6.60;74.00;;;;;;6245863;23;19996;-74
2023/04/06 05:00:22;;;;;;;14.05;8.52;;;6.50;74.20;;;;;;6245873;23;20039;-74
2023/04/06 05:02:48;;;;;;;11.93;7.93;;;6.50;73.70;;;;;;6246273;23;20426;-75
2023/04/06 05:05:13;;;;;;;13.43;8.13;;;6.50;74.40;;;;;;6218920;23;20011;-74
2023/04/06 05:07:39;;;;;;;13.52;8.00;;;6.50;73.60;;;;;;6246092;23;20027;-75
2023/04/06 05:10:06;;;;;;;12.38;7.43;;;6.50;74.00;;;;;;6245747;23;20434;-76
2023/04/06 05:12:32;;;;;;;14.60;7.60;;;6.50;74.10;;;;;;6245810;23;20097;-75
2023/04/06 05:14:57;;;;;;;16.60;8.02;;;6.50;73.80;;;;;;6245484;23;20358;-74
2023/04/06 05:17:23;;;;;;;14.20;8.40;;;6.60;73.90;;;;;;6245452;23;20043;-75
2023/04/06 05:19:49;;;;;;;14.18;8.45;;;6.50;74.00;;;;;;6245328;23;20046;-73
2023/04/06 05:22:17;;;;;;;16.23;8.75;;;6.60;74.10;;;;;;6245288;23;20070;-74
2023/04/06 05:24:43;;;;;;;15.25;8.70;;;6.60;74.10;;;;;;6245147;23;20008;-74
2023/04/06 05:27:10;;;;;;;13.40;7.28;;;6.70;74.10;;;;;;6245476;23;20004;-75
2023/04/06 05:29:35;;;;;;;15.48;6.90;;;6.70;73.90;;;;;;6218572;23;20034;-75
2023/04/06 05:32:01;;;;;;;11.93;7.68;;;6.60;73.30;;;;;;6245701;23;20027;-74
2023/04/06 05:34:27;;;;;;;11.30;7.40;;;6.60;73.30;;;;;;6245352;23;20058;-74
2023/04/06 05:36:53;;;;;;;12.45;7.57;;;6.50;73.50;;;;;;6245057;23;20074;-76
2023/04/06 05:39:19;;;;;;;12.82;7.75;;;6.50;73.40;;;;;;6245267;23;20004;-73
2023/04/06 05:41:45;;;;;;;12.32;7.13;;;6.50;73.30;;;;;;6245522;23;20065;-77
2023/04/06 05:44:10;;;;;;;12.50;7.72;;;6.50;73.20;;;;;;6245312;23;20039;-74
2023/04/06 05:46:36;;;;;;;13.43;7.72;;;6.50;73.10;;;;;;6245215;23;20044;-75
2023/04/06 05:49:02;;;;;;;11.02;7.68;;;6.60;73.30;;;;;;6245461;23;20008;-77
2023/04/06 05:51:27;;;;;;;10.55;7.18;;;6.60;72.60;;;;;;6245454;23;19997;-74
2023/04/06 05:53:53;;;;;;;15.40;7.75;;;6.80;72.80;;;;;;6245112;23;20004;-72
2023/04/06 05:56:19;;;;;;;15.95;8.10;;;6.90;72.60;;;;;;6245229;23;20004;-72
2023/04/06 05:58:44;;;;;;;13.52;7.03;;;7.10;72.20;;;;;;6245121;23;20134;-70
2023/04/06 06:01:10;;;;;;;12.98;7.88;;;7.20;71.10;;;;;;6245247;23;19996;-74
2023/04/06 06:03:36;;;;;;;11.35;7.35;;;7.40;70.70;;;;;;6245181;23;20465;-73
2023/04/06 06:06:05;;;;;;;15.07;6.93;;;7.60;70.10;;;;;;6245316;23;19996;-74
2023/04/06 06:08:31;;;;;;;16.33;7.70;;;7.80;69.50;;;;;;6245535;23;20007;-74
2023/04/06 06:10:57;;;;;;;17.42;6.75;;;8.00;69.80;;;;;;6245587;23;20058;-73
2023/04/06 06:13:23;;;;;;;12.93;6.95;;;8.20;69.20;;;;;;6244779;23;20008;-73
2023/04/06 06:15:50;;;;;;;23.60;8.80;;;8.30;68.70;;;;;;6244640;22;20500;-74
2023/04/06 06:18:16;;;;;;;21.88;7.75;;;8.50;68.30;;;;;;6217933;23;20090;-73
2023/04/06 06:20:42;;;;;;;16.50;7.40;;;8.70;68.00;;;;;;6245161;23;20011;-71
2023/04/06 06:23:07;;;;;;;20.48;8.73;;;8.90;68.30;;;;;;6245197;23;20520;-76
2023/04/06 06:25:33;;;;;;;16.05;6.90;;;9.10;67.60;;;;;;6244690;23;20028;-74
2023/04/06 06:27:59;;;;;;;16.58;7.18;;;9.20;67.00;;;;;;6244798;23;20062;-76
2023/04/06 06:30:25;;;;;;;14.77;7.60;;;9.30;66.70;;;;;;6244725;23;20053;-71
2023/04/06 06:32:51;;;;;;;10.35;6.20;;;9.50;65.90;;;;;;6218168;23;20019;-73
2023/04/06 06:35:17;;;;;;;15.35;6.28;;;9.70;65.50;;;;;;6244881;23;20016;-73
2023/04/06 06:37:43;;;;;;;12.02;6.68;;;9.70;64.60;;;;;;6245089;23;20035;-74
2023/04/06 06:40:12;;;;;;;10.05;6.38;;;9.80;64.90;;;;;;6244314;23;20080;-77
2023/04/06 06:42:38;;;;;;;17.17;7.05;;;9.80;64.00;;;;;;6244286;23;19996;-74
2023/04/06 06:45:05;;;;;;;12.73;7.00;;;10.00;63.30;;;;;;6243960;23;20007;-76
2023/04/06 06:47:31;;;;;;;10.93;7.13;;;10.10;63.10;;;;;;6244656;23;20000;-75
2023/04/06 06:49:57;;;;;;;14.35;6.35;;;10.30;62.90;;;;;;6244077;23;20004;-75
2023/04/06 06:52:23;;;;;;;11.88;6.25;;;10.50;62.30;;;;;;6244198;23;20011;-74
2023/04/06 06:54:49;;;;;;;11.57;6.43;;;10.50;60.60;;;;;;6244638;23;20083;-75
2023/04/06 06:57:15;;;;;;;17.75;6.85;;;10.60;61.20;;;;;;6244218;23;20374;-75
2023/04/06 06:59:41;;;;;;;9.48;6.32;;;10.70;60.70;;;;;;6217378;23;20509;-75
2023/04/06 07:02:07;;;;;;;12.73;6.70;;;10.80;60.80;;;;;;6217301;23;19999;-74
2023/04/06 07:04:32;;;;;;;10.15;6.85;;;10.90;59.60;;;;;;6244314;23;20039;-76
2023/04/06 07:06:58;;;;;;;11.77;6.40;;;11.00;59.90;;;;;;6244624;23;20434;-75
2023/04/06 07:09:24;;;;;;;13.35;6.95;;;11.00;59.40;;;;;;6244609;23;20433;-76
2023/04/06 07:11:50;;;;;;;12.73;6.97;;;11.00;59.20;;;;;;6244449;23;20087;-76
2023/04/06 07:14:16;;;;;;;14.93;6.47;;;11.00;59.40;;;;;;6244554;23;20016;-76
2023/04/06 07:16:42;;;;;;;12.38;6.40;;;11.10;58.50;;;;;;6244407;23;20024;-76
2023/04/06 07:19:09;;;;;;;12.63;6.25;;;11.10;57.60;;;;;;6217626;23;20093;-75
2023/04/06 07:21:35;;;;;;;12.80;6.38;;;11.10;57.90;;;;;;6244632;23;20012;-73
2023/04/06 07:24:01;;;;;;;13.85;7.13;;;11.10;57.50;;;;;;6244601;23;20000;-76
2023/04/06 07:26:27;;;;;;;11.55;6.20;;;11.30;57.90;;;;;;6217634;23;20012;-75
2023/04/06 07:28:53;;;;;;;12.00;6.13;;;11.30;57.30;;;;;;6244767;23;20000;-75
2023/04/06 07:31:18;;;;;;;9.93;5.97;;;11.40;57.20;;;;;;6245549;23;20001;-76
2023/04/06 07:33:44;;;;;;;10.57;6.35;;;11.40;57.10;;;;;;6245378;23;20000;-75
2023/04/06 07:36:10;;;;;;;12.50;6.72;;;11.50;56.60;;;;;;6245571;23;20016;-76
2023/04/06 07:38:36;;;;;;;10.50;6.10;;;11.60;56.70;;;;;;6245355;23;20000;-77
2023/04/06 07:41:03;;;;;;;13.63;6.35;;;11.60;56.70;;;;;;6245401;23;20008;-76
2023/04/06 07:43:30;;;;;;;13.18;6.35;;;11.70;56.20;;;;;;6245325;23;19997;-77
2023/04/06 07:45:57;;;;;;;25.85;7.50;;;11.70;56.10;;;;;;6244702;23;20004;-76
2023/04/06 07:48:23;;;;;;;22.33;6.78;;;11.70;56.30;;;;;;6244508;23;20000;-75
2023/04/06 07:50:49;;;;;;;10.05;5.30;;;11.70;56.00;;;;;;6244691;23;20083;-76
2023/04/06 07:53:15;;;;;;;10.70;5.80;;;11.70;55.70;;;;;;6245181;23;20000;-77
2023/04/06 07:55:41;;;;;;;10.82;5.57;;;11.70;55.60;;;;;;6244889;23;20108;-78
2023/04/06 07:58:07;;;;;;;10.27;5.57;;;11.60;55.90;;;;;;6244925;23;20003;-76
2023/04/06 08:00:32;;;;;;;9.18;5.13;;;11.60;55.50;;;;;;6244839;23;20022;-78
2023/04/06 08:02:58;;;;;;;14.15;5.07;;;11.60;55.80;;;;;;6245269;23;20000;-76
2023/04/06 08:05:24;;;;;;;10.57;4.82;;;11.70;55.70;;;;;;6244524;23;20000;-74
2023/04/06 08:07:50;;;;;;;14.70;5.55;;;11.60;55.90;;;;;;6245037;23;20004;-77
2023/04/06 08:10:16;;;;;;;16.27;5.53;;;11.60;55.60;;;;;;6245206;23;20011;-77
2023/04/06 08:12:41;;;;;;;13.00;5.15;;;11.60;55.70;;;;;;6218135;23;20039;-77
2023/04/06 08:15:07;;;;;;;12.85;5.22;;;11.50;55.20;;;;;;6243978;23;20015;-77
2023/04/06 08:17:33;;;;;;;10.55;4.65;;;11.60;55.40;;;;;;6245890;23;20032;-75
2023/04/06 08:20:00;;;;;;;11.70;4.95;;;11.60;55.30;;;;;;6217476;23;20035;-75
2023/04/06 08:22:25;;;;;;;10.07;4.80;;;11.50;55.30;;;;;;6243929;23;20075;-75
2023/04/06 08:24:51;;;;;;;8.88;4.60;;;11.50;55.30;;;;;;6244128;23;20077;-75
2023/04/06 08:27:17;;;;;;;11.00;4.25;;;11.50;55.70;;;;;;6245455;23;20012;-73
2023/04/06 08:29:43;;;;;;;11.23;4.70;;;11.50;55.40;;;;;;6246173;23;20062;-76
2023/04/06 08:32:09;;;;;;;11.18;4.50;;;11.40;55.20;;;;;;6245865;23;20000;-77
2023/04/06 08:34:34;;;;;;;8.70;4.50;;;11.40;55.20;;;;;;6245963;23;20008;-76
2023/04/06 08:37:00;;;;;;;8.85;4.80;;;11.40;55.20;;;;;;6249981;23;20000;-75
2023/04/06 08:39:27;;;;;;;9.13;4.22;;;11.40;55.20;;;;;;6248275;23;20312;-74
2023/04/06 08:41:56;;;;;;;13.48;4.57;;;11.40;54.60;;;;;;6247214;23;20071;-74
2023/04/06 08:44:22;;;;;;;6.22;3.42;;;11.40;54.80;;;;;;6245725;23;20129;-74
2023/04/06 08:46:50;;;;;;;7.60;4.40;;;11.40;54.30;;;;;;6245544;23;20079;-75
2023/04/06 08:49:16;;;;;;;7.93;4.35;;;11.50;54.00;;;;;;6245690;23;20054;-75
2023/04/06 08:51:42;;;;;;;7.80;3.97;;;11.50;53.50;;;;;;6245346;23;20275;-73
2023/04/06 08:54:08;;;;;;;7.75;4.22;;;11.50;53.40;;;;;;6245745;23;20438;-76
2023/04/06 08:56:37;;;;;;;13.48;5.55;;;11.50;53.10;;;;;;6245698;23;20007;-75
2023/04/06 08:59:03;;;;;;;9.63;4.10;;;11.50;53.50;;;;;;6245132;23;20008;-74
2023/04/06 09:01:30;;;;;;;14.98;5.45;;;11.60;53.30;;;;;;6244981;23;20000;-76
2023/04/06 09:03:58;;;;;;;8.27;4.20;;;11.70;54.20;;;;;;6244946;23;20436;-76
2023/04/06 09:06:26;;;;;;;6.85;4.20;;;11.80;53.80;;;;;;6246062;23;20012;-81
2023/04/06 09:08:52;;;;;;;9.35;4.65;;;11.90;53.90;;;;;;6246487;23;20015;-83
2023/04/06 09:11:18;;;;;;;8.05;4.07;;;12.00;53.80;;;;;;6245566;23;20000;-78
2023/04/06 09:13:52;;;;;;;8.43;4.30;;;12.00;52.90;;;;;;6245571;23;20000;-80
2023/04/06 09:16:18;;;;;;;;;;;12.00;52.10;;;;;;6246132;23;20330;-78
2023/04/06 09:18:44;;;;;;;7.68;4.22;;;12.00;52.70;;;;;;6245255;23;19903;-72
2023/04/06 09:21:11;;;;;;;8.75;4.25;;;12.10;52.80;;;;;;6245721;23;20071;-79
2023/04/06 09:23:37;;;;;;;9.80;4.10;;;12.10;52.50;;;;;;6248174;23;20000;-75
2023/04/06 09:26:11;;;;;;;7.50;3.88;;;12.20;52.80;;;;;;6245865;23;19997;-77
2023/04/06 09:28:57;;;;;;;7.25;4.18;;;12.30;52.20;;;;;;6245362;23;20243;-78
2023/04/06 09:31:26;;;;;;;7.13;3.90;;;12.30;52.20;;;;;;6245097;23;20011;-79
2023/04/06 09:33:52;;;;;;;7.28;4.38;;;12.40;52.00;;;;;;6245308;23;20000;-79
2023/04/06 09:36:19;;;;;;;11.23;4.40;;;12.40;51.00;;;;;;6244742;23;20342;-74
2023/04/06 09:38:59;;;;;;;9.68;3.90;;;12.30;50.90;;;;;;6244700;23;20000;-76
2023/04/06 09:41:25;;;;;;;6.78;4.20;;;12.40;49.50;;;;;;6244761;23;20330;-74
2023/04/06 09:44:07;;;;;;;7.47;4.13;;;12.40;49.80;;;;;;6245026;23;20028;-73
2023/04/06 09:46:35;;;;;;;7.13;4.40;;;12.50;50.80;;;;;;6244621;23;20004;-73
2023/04/06 09:49:05;;;;;;;6.50;4.13;;;12.50;50.40;;;;;;6244372;23;20240;-72
2023/04/06 09:51:36;;;;;;;8.60;3.80;;;12.60;50.30;;;;;;6243661;23;20008;-72
2023/04/06 09:54:04;;;;;;;9.35;4.72;;;12.60;50.40;;;;;;6244717;23;20011;-73
2023/04/06 09:57:24;;;;;;;6.40;3.85;;;12.70;50.00;;;;;;6245189;23;20052;-71
2023/04/06 10:00:11;;;;;;;6.97;3.20;;;12.70;50.40;;;;;;6185169;23;20449;-73
2023/04/06 10:03:00;;;;;;;6.15;3.72;;;12.80;49.00;;;;;;6244323;23;20159;-75
2023/04/06 10:05:46;;;;;;;10.90;4.20;;;12.90;49.70;;;;;;6244910;23;20014;-72
2023/04/06 10:08:13;;;;;;;273.83;26.85;;;12.90;49.70;;;;;;6244951;23;20000;-70
2023/04/06 10:10:39;;;;;;;17.48;5.30;;;13.10;49.30;;;;;;6244389;23;20007;-73
2023/04/06 10:13:07;;;;;;;6.93;3.95;;;13.20;48.80;;;;;;6244666;23;20007;-71
2023/04/06 10:15:33;;;;;;;7.32;4.13;;;13.30;47.50;;;;;;6244851;23;20043;-74
2023/04/06 10:18:00;;;;;;;11.50;4.95;;;13.30;47.20;;;;;;6244258;23;20008;-71
2023/04/06 10:20:40;;;;;;;9.75;4.13;;;13.40;47.10;;;;;;6244305;23;20000;-71
2023/04/06 10:23:36;;;;;;;7.10;3.90;;;13.40;48.10;;;;;;6244035;23;20035;-72
2023/04/06 10:26:02;;;;;;;9.57;4.78;;;13.40;48.00;;;;;;6229075;23;20012;-71
2023/04/06 10:28:34;;;;;;;65.32;8.38;;;13.50;46.00;;;;;;6244335;23;20000;-69
2023/04/06 10:31:09;;;;;;;7.55;4.30;;;13.60;46.80;;;;;;6243795;23;20007;-70
2023/04/06 10:33:35;;;;;;;8.93;3.50;;;13.70;46.80;;;;;;6243987;23;19996;-70
2023/04/06 10:36:12;;;;;;;6.35;3.55;;;13.80;45.70;;;;;;6243619;23;20012;-72
2023/04/06 10:38:39;;;;;;;7.63;3.75;;;13.80;44.70;;;;;;6243573;23;20012;-71
2023/04/06 10:41:06;;;;;;;10.00;4.35;;;13.80;44.80;;;;;;6243789;23;20426;-71
2023/04/06 10:43:37;;;;;;;15.90;5.30;;;13.80;45.10;;;;;;6243785;23;20081;-73
2023/04/06 10:46:04;;;;;;;7.68;4.40;;;13.90;44.80;;;;;;6243553;23;20015;-71
2023/04/06 10:48:41;;;;;;;7.90;4.88;;;13.90;45.20;;;;;;6243963;23;20111;-73
2023/04/06 10:51:17;;;;;;;8.40;5.00;;;14.00;45.10;;;;;;6243609;23;20004;-73
2023/04/06 10:53:48;;;;;;;7.88;4.32;;;14.10;45.40;;;;;;6243604;23;20000;-72
2023/04/06 10:56:16;;;;;;;12.63;8.15;;;14.20;45.40;;;;;;6243034;23;20016;-72
2023/04/06 10:58:49;;;;;;;7.57;4.30;;;14.30;45.10;;;;;;6248852;23;20027;-86
2023/04/06 11:01:16;;;;;;;7.47;3.90;;;14.40;45.70;;;;;;6248558;23;20000;-87
2023/04/06 11:03:45;;;;;;;21.42;6.97;;;14.50;45.10;;;;;;6249367;23;20000;-82
2023/04/06 11:06:17;;;;;;;9.00;4.05;;;14.60;45.50;;;;;;6218183;23;20031;-81
2023/04/06 11:08:42;;;;;;;8.18;4.00;;;14.70;45.40;;;;;;6246488;23;20004;-80
2023/04/06 11:11:18;;;;;;;10.45;4.63;;;14.80;45.20;;;;;;6248564;23;20028;-82
2023/04/06 11:13:49;;;;;;;6.78;3.55;;;14.80;44.40;;;;;;6244903;23;20018;-83
2023/04/06 11:16:20;;;;;;;8.00;3.97;;;14.90;44.00;;;;;;6244953;23;20047;-83
2023/04/06 11:18:56;;;;;;;10.75;5.25;;;15.00;44.00;;;;;;6244847;23;20010;-81
2023/04/06 11:21:48;;;;;;;20.02;4.57;;;15.10;44.10;;;;;;6245045;23;20023;-83
2023/04/06 11:24:19;;;;;;;6.88;3.90;;;15.20;43.70;;;;;;6217920;23;20011;-84
2023/04/06 11:26:55;;;;;;;8.20;4.07;;;15.30;43.20;;;;;;6245125;23;20000;-81
2023/04/06 11:29:24;;;;;;;10.95;6.15;;;15.40;42.60;;;;;;6245477;23;20315;-80
2023/04/06 11:31:52;;;;;;;11.45;5.07;;;15.50;42.80;;;;;;6244248;23;20000;-82
2023/04/06 11:34:18;;;;;;;20.95;4.80;;;15.60;42.20;;;;;;6244373;23;20289;-82
2023/04/06 11:36:46;;;;;;;14.15;4.75;;;15.60;42.10;;;;;;6244971;23;20004;-82
2023/04/06 11:39:19;;;;;;;7.47;3.85;;;15.70;41.40;;;;;;6244821;23;20378;-81
2023/04/06 11:41:58;;;;;;;6.45;3.47;;;15.80;40.40;;;;;;6244633;23;19996;-82
2023/04/06 11:44:49;;;;;;;12.48;4.60;;;15.70;39.50;;;;;;6245284;23;20004;-82
2023/04/06 11:47:15;;;;;;;9.93;4.57;;;15.80;41.20;;;;;;6201280;23;20012;-81
2023/04/06 11:49:45;;;;;;;8.68;4.13;;;15.80;40.60;;;;;;6246930;23;20003;-81
2023/04/06 11:52:19;;;;;;;8.80;4.50;;;15.80;40.10;;;;;;6219417;23;20088;-82
2023/04/06 11:54:46;;;;;;;7.68;4.03;;;15.80;40.30;;;;;;6244324;23;20019;-82
2023/04/06 11:57:12;;;;;;;11.75;4.15;;;15.90;40.60;;;;;;6247937;23;19996;-82
2023/04/06 11:59:37;;;;;;;6.25;4.10;;;16.00;40.20;;;;;;6251041;23;20000;-81
2023/04/06 12:02:04;;;;;;;8.63;4.07;;;16.00;40.20;;;;;;6248051;23;20345;-81
2023/04/06 12:04:31;;;;;;;10.32;4.10;;;16.10;40.30;;;;;;6246665;23;20004;-82
2023/04/06 12:06:57;;;;;;;8.88;3.50;;;16.20;40.50;;;;;;6246314;23;19997;-80
2023/04/06 12:09:23;;;;;;;12.57;4.30;;;16.20;39.50;;;;;;6246352;23;20011;-82
2023/04/06 12:11:48;;;;;;;8.93;3.90;;;16.30;39.90;;;;;;6246604;23;20024;-80
2023/04/06 12:14:14;;;;;;;7.63;4.30;;;16.40;39.80;;;;;;6246070;23;20063;-82
2023/04/06 12:16:40;;;;;;;9.23;4.68;;;16.40;39.10;;;;;;6247277;23;20105;-81
2023/04/06 12:19:06;;;;;;;9.90;4.13;;;16.60;39.70;;;;;;6246747;23;20042;-81
2023/04/06 12:21:38;;;;;;;12.40;5.28;;;16.70;39.70;;;;;;6246202;23;20004;-80
2023/04/06 12:24:05;;;;;;;7.13;3.75;;;16.70;39.90;;;;;;6246508;23;20027;-81
2023/04/06 12:26:31;;;;;;;8.13;3.83;;;16.80;40.30;;;;;;6246777;23;20529;-82
2023/04/06 12:29:02;;;;;;;8.73;3.80;;;16.80;39.10;;;;;;6248276;23;20421;-80
2023/04/06 12:31:28;;;;;;;6.82;3.65;;;16.60;38.50;;;;;;6246400;23;20000;-82
2023/04/06 12:33:54;;;;;;;7.25;3.85;;;16.50;38.30;;;;;;6246758;23;20004;-82
2023/04/06 12:36:20;;;;;;;8.52;5.20;;;16.60;38.40;;;;;;6246187;23;20032;-80
2023/04/06 12:38:53;;;;;;;8.25;3.72;;;16.60;37.90;;;;;;6246120;23;20012;-82
2023/04/06 12:41:18;;;;;;;5.72;3.50;;;16.70;38.10;;;;;;6246662;23;20008;-82
2023/04/06 12:43:45;;;;;;;7.15;4.35;;;16.70;37.80;;;;;;6245914;23;20031;-80
2023/04/06 12:46:12;;;;;;;6.32;3.10;;;16.80;37.40;;;;;;6245899;23;20456;-82